ANA92 RKPK-RJFU
Flight info
| Callsign | ANA92 |
|---|---|
| Flight time | 0h 25m |
| Altitude | 27000 |
| Route | OPONO3 BESNA DCT OHGIE FUBUKI |
| Aircraft | B77W/H-SDE1E2E3FGHIJ2J3J4J5M1RWXY/LB1D1 |
Departure
| Time | 2026-04-26 18:56 |
|---|---|
| Airport | Gimhae International Airport (RKPK) |
Arrival
| Time | 2026-04-26 19:21 |
|---|---|
| Airport | Nagasaki Airport (RJFU) |
| Time | Latitude | Longitude | Altitude | Speed | Heading |
|---|---|---|---|---|---|
| 2026-04-26 18:56 | 34.94167 | 128.88739 | 15488 ft | 381 kts | 149° |
| 2026-04-26 18:56 | 34.91937 | 128.90442 | 16476 ft | 387 kts | 149° |
| 2026-04-26 18:56 | 34.89624 | 128.92209 | 17455 ft | 394 kts | 150° |
| 2026-04-26 18:56 | 34.87312 | 128.93971 | 18371 ft | 401 kts | 150° |
| 2026-04-26 18:57 | 34.84913 | 128.95801 | 19376 ft | 405 kts | 151° |
| 2026-04-26 18:57 | 34.83334 | 128.97003 | 20038 ft | 407 kts | 151° |
| 2026-04-26 18:57 | 34.80141 | 128.99434 | 21322 ft | 413 kts | 151° |
| 2026-04-26 18:57 | 34.77678 | 129.01308 | 22223 ft | 418 kts | 152° |
| 2026-04-26 18:58 | 34.75223 | 129.03174 | 23094 ft | 422 kts | 152° |
| 2026-04-26 18:58 | 34.72709 | 129.05084 | 23971 ft | 426 kts | 152° |
| 2026-04-26 18:58 | 34.70201 | 129.06988 | 24780 ft | 431 kts | 152° |
| 2026-04-26 18:58 | 34.67640 | 129.08929 | 25493 ft | 439 kts | 152° |
| 2026-04-26 18:59 | 34.65042 | 129.10898 | 26203 ft | 445 kts | 152° |
| 2026-04-26 18:59 | 34.62395 | 129.12904 | 26787 ft | 449 kts | 152° |
| 2026-04-26 18:59 | 34.59765 | 129.14983 | 26882 ft | 455 kts | 149° |
| 2026-04-26 18:59 | 34.57117 | 129.17180 | 26881 ft | 475 kts | 149° |
| 2026-04-26 19:00 | 34.54340 | 129.19488 | 26880 ft | 495 kts | 149° |
| 2026-04-26 19:00 | 34.51425 | 129.21902 | 26876 ft | 511 kts | 149° |
| 2026-04-26 19:00 | 34.48486 | 129.24335 | 26883 ft | 515 kts | 149° |
| 2026-04-26 19:00 | 34.45546 | 129.26767 | 26878 ft | 513 kts | 149° |
| 2026-04-26 19:01 | 34.42590 | 129.29207 | 26886 ft | 513 kts | 149° |
| 2026-04-26 19:01 | 34.39614 | 129.31657 | 26883 ft | 515 kts | 149° |
| 2026-04-26 19:01 | 34.36660 | 129.34088 | 26884 ft | 514 kts | 149° |
| 2026-04-26 19:01 | 34.33710 | 129.36511 | 26887 ft | 514 kts | 149° |
| 2026-04-26 19:02 | 34.30731 | 129.38956 | 26885 ft | 513 kts | 149° |
| 2026-04-26 19:02 | 34.27788 | 129.41367 | 26891 ft | 514 kts | 149° |
| 2026-04-26 19:02 | 34.24803 | 129.43813 | 26886 ft | 513 kts | 149° |
| 2026-04-26 19:02 | 34.22835 | 129.45422 | 26886 ft | 513 kts | 149° |
| 2026-04-26 19:03 | 34.18887 | 129.48648 | 26889 ft | 515 kts | 149° |
| 2026-04-26 19:03 | 34.15945 | 129.51051 | 26893 ft | 516 kts | 149° |
| 2026-04-26 19:03 | 34.12964 | 129.53484 | 26892 ft | 514 kts | 149° |
| 2026-04-26 19:03 | 34.10003 | 129.55898 | 26887 ft | 512 kts | 149° |
| 2026-04-26 19:04 | 34.07090 | 129.58272 | 26796 ft | 501 kts | 149° |
| 2026-04-26 19:04 | 34.04234 | 129.60597 | 26157 ft | 497 kts | 149° |
| 2026-04-26 19:04 | 34.01350 | 129.62941 | 25450 ft | 494 kts | 149° |
| 2026-04-26 19:04 | 33.98534 | 129.65230 | 24872 ft | 488 kts | 150° |
| 2026-04-26 19:05 | 33.92972 | 129.69742 | 23765 ft | 474 kts | 150° |
| 2026-04-26 19:05 | 33.90257 | 129.71944 | 23214 ft | 468 kts | 150° |
| 2026-04-26 19:05 | 33.87585 | 129.74106 | 22680 ft | 462 kts | 150° |
| 2026-04-26 19:06 | 33.84920 | 129.76262 | 22141 ft | 457 kts | 150° |
| 2026-04-26 19:06 | 33.82317 | 129.78366 | 21611 ft | 451 kts | 150° |
| 2026-04-26 19:06 | 33.79733 | 129.80453 | 21073 ft | 447 kts | 150° |
| 2026-04-26 19:06 | 33.77144 | 129.82542 | 20524 ft | 442 kts | 150° |
| 2026-04-26 19:07 | 33.74616 | 129.84581 | 19994 ft | 437 kts | 149° |
| 2026-04-26 19:07 | 33.72117 | 129.86595 | 19458 ft | 433 kts | 150° |
| 2026-04-26 19:07 | 33.69614 | 129.88594 | 18898 ft | 429 kts | 152° |
| 2026-04-26 19:07 | 33.66969 | 129.90222 | 18039 ft | 428 kts | 162° |
| 2026-04-26 19:08 | 33.64183 | 129.91422 | 17287 ft | 428 kts | 165° |
| 2026-04-26 19:08 | 33.61364 | 129.92572 | 16290 ft | 435 kts | 164° |
| 2026-04-26 19:08 | 33.58459 | 129.93755 | 15458 ft | 436 kts | 163° |
| 2026-04-26 19:08 | 33.55620 | 129.94910 | 14891 ft | 430 kts | 163° |
| 2026-04-26 19:09 | 33.52827 | 129.96046 | 14366 ft | 424 kts | 163° |
| 2026-04-26 19:09 | 33.50029 | 129.97185 | 13758 ft | 420 kts | 163° |
| 2026-04-26 19:09 | 33.47299 | 129.98294 | 13116 ft | 417 kts | 163° |
| 2026-04-26 19:09 | 33.44548 | 129.99411 | 12529 ft | 413 kts | 163° |
| 2026-04-26 19:10 | 33.41831 | 130.00514 | 11956 ft | 408 kts | 162° |
| 2026-04-26 19:10 | 33.39178 | 130.01590 | 11373 ft | 404 kts | 162° |
| 2026-04-26 19:10 | 33.36545 | 130.02657 | 10762 ft | 401 kts | 162° |
| 2026-04-26 19:10 | 33.33918 | 130.03722 | 10141 ft | 397 kts | 162° |
| 2026-04-26 19:11 | 33.31287 | 130.04785 | 9533 ft | 394 kts | 162° |
| 2026-04-26 19:11 | 33.28712 | 130.05827 | 8961 ft | 389 kts | 162° |
| 2026-04-26 19:11 | 33.26154 | 130.06860 | 8336 ft | 387 kts | 161° |
| 2026-04-26 19:11 | 33.23603 | 130.07890 | 7797 ft | 382 kts | 161° |
| 2026-04-26 19:12 | 33.21096 | 130.08717 | 7533 ft | 368 kts | 169° |
| 2026-04-26 19:12 | 33.18619 | 130.09247 | 7385 ft | 353 kts | 170° |
| 2026-04-26 19:12 | 33.16251 | 130.09740 | 7311 ft | 338 kts | 170° |
| 2026-04-26 19:12 | 33.14001 | 130.10207 | 7293 ft | 322 kts | 170° |
| 2026-04-26 19:13 | 33.11837 | 130.10654 | 7279 ft | 306 kts | 170° |
| 2026-04-26 19:13 | 33.09800 | 130.11076 | 7267 ft | 292 kts | 170° |
| 2026-04-26 19:13 | 33.07840 | 130.11482 | 7225 ft | 280 kts | 170° |
| 2026-04-26 19:13 | 33.05912 | 130.11881 | 6915 ft | 279 kts | 169° |
| 2026-04-26 19:14 | 33.04015 | 130.12273 | 6596 ft | 278 kts | 169° |
| 2026-04-26 19:14 | 33.02094 | 130.12669 | 6310 ft | 276 kts | 169° |
| 2026-04-26 19:14 | 33.00212 | 130.13058 | 6012 ft | 276 kts | 169° |
| 2026-04-26 19:14 | 32.99584 | 130.13188 | 5900 ft | 276 kts | 169° |
| 2026-04-26 19:15 | 32.96440 | 130.13838 | 5435 ft | 272 kts | 169° |
| 2026-04-26 19:15 | 32.94572 | 130.14223 | 5114 ft | 273 kts | 169° |
| 2026-04-26 19:15 | 32.92685 | 130.14488 | 4950 ft | 264 kts | 184° |
| 2026-04-26 19:15 | 32.90982 | 130.13898 | 4900 ft | 249 kts | 211° |
| 2026-04-26 19:16 | 32.89664 | 130.12639 | 4681 ft | 243 kts | 225° |
| 2026-04-26 19:16 | 32.88450 | 130.11250 | 4383 ft | 245 kts | 226° |
| 2026-04-26 19:16 | 32.87214 | 130.09827 | 4050 ft | 245 kts | 226° |
| 2026-04-26 19:16 | 32.85989 | 130.08415 | 3720 ft | 245 kts | 227° |
| 2026-04-26 19:17 | 32.84763 | 130.07004 | 3404 ft | 244 kts | 227° |
| 2026-04-26 19:17 | 32.83576 | 130.05635 | 3081 ft | 235 kts | 228° |
| 2026-04-26 19:17 | 32.82746 | 130.04080 | 2764 ft | 215 kts | 256° |
| 2026-04-26 19:17 | 32.82659 | 130.02416 | 2430 ft | 193 kts | 276° |
| 2026-04-26 19:18 | 32.82992 | 130.00938 | 2082 ft | 180 kts | 293° |
| 2026-04-26 19:18 | 32.83593 | 129.99744 | 1857 ft | 158 kts | 323° |
| 2026-04-26 19:18 | 32.84455 | 129.99051 | 1668 ft | 145 kts | 321° |
| 2026-04-26 19:18 | 32.85182 | 129.98236 | 1488 ft | 142 kts | 320° |
| 2026-04-26 19:19 | 32.85923 | 129.97464 | 1301 ft | 142 kts | 321° |
| 2026-04-26 19:19 | 32.86658 | 129.96683 | 1117 ft | 142 kts | 320° |
| 2026-04-26 19:19 | 32.87397 | 129.95901 | 926 ft | 142 kts | 320° |
| 2026-04-26 19:19 | 32.88145 | 129.95108 | 730 ft | 143 kts | 320° |
| 2026-04-26 19:20 | 32.88892 | 129.94315 | 535 ft | 143 kts | 321° |
| 2026-04-26 19:20 | 32.89392 | 129.93787 | 402 ft | 144 kts | 320° |
| 2026-04-26 19:20 | 32.90390 | 129.92732 | 133 ft | 142 kts | 320° |
| 2026-04-26 19:20 | 32.91126 | 129.91945 | 20 ft | 137 kts | 319° |
| 2026-04-26 19:21 | 32.91728 | 129.91327 | 12 ft | 94 kts | 317° |
| 2026-04-26 19:21 | 32.91999 | 129.91127 | 14 ft | 26 kts | 45° |
| 2026-04-26 19:21 | 32.92017 | 129.91269 | 14 ft | 14 kts | 130° |
| 2026-04-26 19:21 | 32.91922 | 129.91377 | 14 ft | 26 kts | 136° |
| 2026-04-26 19:22 | 32.91747 | 129.91566 | 14 ft | 40 kts | 137° |
| 2026-04-26 19:22 | 32.91546 | 129.91780 | 14 ft | 22 kts | 138° |
| 2026-04-26 19:22 | 32.91435 | 129.91901 | 14 ft | 21 kts | 143° |
| 2026-04-26 19:22 | 32.91399 | 129.91952 | 14 ft | 11 kts | 89° |
| 2026-04-26 19:23 | 32.91444 | 129.92049 | 15 ft | 11 kts | 48° |
| 2026-04-26 19:23 | 32.91463 | 129.92075 | 15 ft | 0 kts | 49° |